sensor_id;sensor_type;location;lat;lon;timestamp;P1;durP1;ratioP1;P2;durP2;ratioP2
22881;SDS011;11608;50.894;5.296;2023-07-29T00:01:40;20.75;;;19.25;;
22881;SDS011;11608;50.894;5.296;2023-07-29T00:04:08;20.85;;;19.38;;
22881;SDS011;11608;50.894;5.296;2023-07-29T00:06:35;20.80;;;19.40;;
22881;SDS011;11608;50.894;5.296;2023-07-29T00:09:01;20.75;;;19.30;;
22881;SDS011;11608;50.894;5.296;2023-07-29T00:11:28;20.52;;;19.17;;
22881;SDS011;11608;50.894;5.296;2023-07-29T00:13:55;21.55;;;19.92;;
22881;SDS011;11608;50.894;5.296;2023-07-29T00:16:21;20.92;;;19.42;;
22881;SDS011;11608;50.894;5.296;2023-07-29T00:18:48;21.77;;;20.02;;
22881;SDS011;11608;50.894;5.296;2023-07-29T00:21:14;21.40;;;19.77;;
22881;SDS011;11608;50.894;5.296;2023-07-29T00:23:40;21.38;;;19.98;;
22881;SDS011;11608;50.894;5.296;2023-07-29T00:26:06;21.77;;;20.08;;
22881;SDS011;11608;50.894;5.296;2023-07-29T00:28:32;21.23;;;19.80;;
22881;SDS011;11608;50.894;5.296;2023-07-29T00:30:58;21.40;;;19.90;;
22881;SDS011;11608;50.894;5.296;2023-07-29T00:33:24;21.95;;;20.23;;
22881;SDS011;11608;50.894;5.296;2023-07-29T00:35:50;21.25;;;19.55;;
22881;SDS011;11608;50.894;5.296;2023-07-29T00:38:16;21.67;;;20.17;;
22881;SDS011;11608;50.894;5.296;2023-07-29T00:40:42;21.35;;;19.95;;
22881;SDS011;11608;50.894;5.296;2023-07-29T00:43:08;21.83;;;20.23;;
22881;SDS011;11608;50.894;5.296;2023-07-29T00:45:37;21.70;;;20.10;;
22881;SDS011;11608;50.894;5.296;2023-07-29T00:48:06;21.10;;;19.42;;
22881;SDS011;11608;50.894;5.296;2023-07-29T00:50:35;21.13;;;19.58;;
22881;SDS011;11608;50.894;5.296;2023-07-29T00:53:01;21.10;;;19.70;;
22881;SDS011;11608;50.894;5.296;2023-07-29T00:55:27;21.17;;;19.77;;
22881;SDS011;11608;50.894;5.296;2023-07-29T00:57:54;20.70;;;19.20;;
22881;SDS011;11608;50.894;5.296;2023-07-29T01:00:20;21.42;;;19.92;;
22881;SDS011;11608;50.894;5.296;2023-07-29T01:02:46;21.80;;;20.10;;
22881;SDS011;11608;50.894;5.296;2023-07-29T01:05:13;21.30;;;19.80;;
22881;SDS011;11608;50.894;5.296;2023-07-29T01:07:45;21.40;;;19.90;;
22881;SDS011;11608;50.894;5.296;2023-07-29T01:12:49;21.88;;;20.20;;
22881;SDS011;11608;50.894;5.296;2023-07-29T01:18:18;21.73;;;19.92;;
22881;SDS011;11608;50.894;5.296;2023-07-29T01:20:46;21.65;;;20.15;;
22881;SDS011;11608;50.894;5.296;2023-07-29T01:23:13;21.48;;;19.80;;
22881;SDS011;11608;50.894;5.296;2023-07-29T01:25:41;21.48;;;20.08;;
22881;SDS011;11608;50.894;5.296;2023-07-29T01:28:08;21.70;;;19.98;;
22881;SDS011;11608;50.894;5.296;2023-07-29T01:30:38;22.08;;;20.27;;
22881;SDS011;11608;50.894;5.296;2023-07-29T01:38:08;20.88;;;19.30;;
22881;SDS011;11608;50.894;5.296;2023-07-29T01:40:35;20.70;;;19.20;;
22881;SDS011;11608;50.894;5.296;2023-07-29T01:43:01;20.33;;;18.85;;
22881;SDS011;11608;50.894;5.296;2023-07-29T01:45:27;19.83;;;18.40;;
22881;SDS011;11608;50.894;5.296;2023-07-29T01:47:57;21.02;;;19.25;;
22881;SDS011;11608;50.894;5.296;2023-07-29T01:50:25;21.15;;;19.45;;
22881;SDS011;11608;50.894;5.296;2023-07-29T01:52:53;20.30;;;18.90;;
22881;SDS011;11608;50.894;5.296;2023-07-29T01:55:19;21.00;;;19.42;;
22881;SDS011;11608;50.894;5.296;2023-07-29T01:57:45;20.65;;;19.20;;
22881;SDS011;11608;50.894;5.296;2023-07-29T02:00:12;21.00;;;19.50;;
22881;SDS011;11608;50.894;5.296;2023-07-29T02:02:38;21.00;;;19.40;;
22881;SDS011;11608;50.894;5.296;2023-07-29T02:05:04;20.38;;;19.08;;
22881;SDS011;11608;50.894;5.296;2023-07-29T02:07:30;20.77;;;19.20;;
22881;SDS011;11608;50.894;5.296;2023-07-29T02:09:56;20.50;;;19.15;;
22881;SDS011;11608;50.894;5.296;2023-07-29T02:12:22;20.58;;;19.17;;
22881;SDS011;11608;50.894;5.296;2023-07-29T02:14:48;20.38;;;19.00;;
22881;SDS011;11608;50.894;5.296;2023-07-29T02:17:15;20.67;;;19.20;;
22881;SDS011;11608;50.894;5.296;2023-07-29T02:19:41;21.38;;;19.70;;
22881;SDS011;11608;50.894;5.296;2023-07-29T02:22:07;20.75;;;19.25;;
22881;SDS011;11608;50.894;5.296;2023-07-29T02:24:33;20.63;;;19.13;;
22881;SDS011;11608;50.894;5.296;2023-07-29T02:27:01;20.40;;;19.10;;
22881;SDS011;11608;50.894;5.296;2023-07-29T02:29:27;20.10;;;18.73;;
22881;SDS011;11608;50.894;5.296;2023-07-29T02:31:54;19.98;;;18.67;;
22881;SDS011;11608;50.894;5.296;2023-07-29T02:34:20;19.40;;;18.10;;
22881;SDS011;11608;50.894;5.296;2023-07-29T02:36:46;19.50;;;18.30;;
22881;SDS011;11608;50.894;5.296;2023-07-29T02:39:12;19.73;;;18.42;;
22881;SDS011;11608;50.894;5.296;2023-07-29T02:41:38;20.48;;;19.15;;
22881;SDS011;11608;50.894;5.296;2023-07-29T02:44:05;20.63;;;19.15;;
22881;SDS011;11608;50.894;5.296;2023-07-29T02:46:31;20.42;;;19.08;;
22881;SDS011;11608;50.894;5.296;2023-07-29T02:48:57;19.73;;;18.42;;
22881;SDS011;11608;50.894;5.296;2023-07-29T02:51:26;20.60;;;19.20;;
22881;SDS011;11608;50.894;5.296;2023-07-29T02:53:52;21.63;;;20.02;;
22881;SDS011;11608;50.894;5.296;2023-07-29T02:56:18;20.58;;;19.17;;
22881;SDS011;11608;50.894;5.296;2023-07-29T02:58:44;20.70;;;19.30;;
22881;SDS011;11608;50.894;5.296;2023-07-29T03:01:10;20.27;;;18.98;;
22881;SDS011;11608;50.894;5.296;2023-07-29T03:03:36;20.27;;;18.90;;
22881;SDS011;11608;50.894;5.296;2023-07-29T03:06:04;20.40;;;18.98;;
22881;SDS011;11608;50.894;5.296;2023-07-29T03:08:30;20.42;;;19.13;;
22881;SDS011;11608;50.894;5.296;2023-07-29T03:10:57;20.52;;;19.13;;
22881;SDS011;11608;50.894;5.296;2023-07-29T03:13:23;20.20;;;18.80;;
22881;SDS011;11608;50.894;5.296;2023-07-29T03:15:49;20.52;;;18.98;;
22881;SDS011;11608;50.894;5.296;2023-07-29T03:18:17;20.08;;;18.67;;
22881;SDS011;11608;50.894;5.296;2023-07-29T03:20:44;20.60;;;19.20;;
22881;SDS011;11608;50.894;5.296;2023-07-29T03:23:10;20.70;;;19.30;;
22881;SDS011;11608;50.894;5.296;2023-07-29T03:25:36;20.42;;;19.00;;
22881;SDS011;11608;50.894;5.296;2023-07-29T03:28:02;20.40;;;19.00;;
22881;SDS011;11608;50.894;5.296;2023-07-29T03:30:28;20.95;;;19.40;;
22881;SDS011;11608;50.894;5.296;2023-07-29T03:32:57;20.70;;;19.17;;
22881;SDS011;11608;50.894;5.296;2023-07-29T03:35:23;20.77;;;19.40;;
22881;SDS011;11608;50.894;5.296;2023-07-29T03:37:49;20.70;;;19.30;;
22881;SDS011;11608;50.894;5.296;2023-07-29T03:40:15;21.33;;;19.83;;
22881;SDS011;11608;50.894;5.296;2023-07-29T03:42:41;21.38;;;19.77;;
22881;SDS011;11608;50.894;5.296;2023-07-29T03:45:07;21.13;;;19.48;;
22881;SDS011;11608;50.894;5.296;2023-07-29T03:47:37;21.90;;;20.48;;
22881;SDS011;11608;50.894;5.296;2023-07-29T03:50:04;21.65;;;19.95;;
22881;SDS011;11608;50.894;5.296;2023-07-29T03:52:30;21.45;;;20.02;;
22881;SDS011;11608;50.894;5.296;2023-07-29T03:54:59;21.20;;;19.75;;
22881;SDS011;11608;50.894;5.296;2023-07-29T03:57:25;21.23;;;19.83;;
22881;SDS011;11608;50.894;5.296;2023-07-29T03:59:51;21.45;;;19.95;;
22881;SDS011;11608;50.894;5.296;2023-07-29T04:02:17;21.88;;;20.27;;
22881;SDS011;11608;50.894;5.296;2023-07-29T04:04:43;21.88;;;20.20;;
22881;SDS011;11608;50.894;5.296;2023-07-29T04:07:12;22.08;;;20.45;;
22881;SDS011;11608;50.894;5.296;2023-07-29T04:09:41;20.95;;;19.35;;
22881;SDS011;11608;50.894;5.296;2023-07-29T04:12:08;20.95;;;19.52;;
22881;SDS011;11608;50.894;5.296;2023-07-29T04:14:35;20.30;;;18.90;;
22881;SDS011;11608;50.894;5.296;2023-07-29T04:17:01;20.58;;;19.08;;
22881;SDS011;11608;50.894;5.296;2023-07-29T04:19:27;21.48;;;19.83;;
22881;SDS011;11608;50.894;5.296;2023-07-29T04:21:53;21.05;;;19.65;;
22881;SDS011;11608;50.894;5.296;2023-07-29T04:24:19;20.88;;;19.17;;
22881;SDS011;11608;50.894;5.296;2023-07-29T04:26:48;20.60;;;19.10;;
22881;SDS011;11608;50.894;5.296;2023-07-29T04:29:14;20.42;;;19.02;;
22881;SDS011;11608;50.894;5.296;2023-07-29T04:31:42;21.02;;;19.40;;
22881;SDS011;11608;50.894;5.296;2023-07-29T04:34:08;20.10;;;18.38;;
22881;SDS011;11608;50.894;5.296;2023-07-29T04:36:34;20.23;;;18.60;;
22881;SDS011;11608;50.894;5.296;2023-07-29T04:39:00;20.60;;;19.00;;
22881;SDS011;11608;50.894;5.296;2023-07-29T04:41:26;20.55;;;19.00;;
22881;SDS011;11608;50.894;5.296;2023-07-29T04:43:55;19.98;;;18.58;;
22881;SDS011;11608;50.894;5.296;2023-07-29T04:46:21;20.15;;;18.55;;
22881;SDS011;11608;50.894;5.296;2023-07-29T04:48:49;20.77;;;19.13;;
22881;SDS011;11608;50.894;5.296;2023-07-29T04:51:15;21.10;;;19.52;;
22881;SDS011;11608;50.894;5.296;2023-07-29T04:53:41;20.75;;;19.15;;
22881;SDS011;11608;50.894;5.296;2023-07-29T04:56:07;20.85;;;19.30;;
22881;SDS011;11608;50.894;5.296;2023-07-29T04:58:33;20.65;;;19.23;;
22881;SDS011;11608;50.894;5.296;2023-07-29T05:01:00;20.70;;;19.17;;
22881;SDS011;11608;50.894;5.296;2023-07-29T05:03:27;20.60;;;18.90;;
22881;SDS011;11608;50.894;5.296;2023-07-29T05:05:53;20.63;;;19.08;;
22881;SDS011;11608;50.894;5.296;2023-07-29T05:08:20;21.50;;;19.65;;
22881;SDS011;11608;50.894;5.296;2023-07-29T05:10:50;20.88;;;19.25;;
22881;SDS011;11608;50.894;5.296;2023-07-29T05:13:16;20.83;;;19.23;;
22881;SDS011;11608;50.894;5.296;2023-07-29T05:15:45;20.65;;;19.08;;
22881;SDS011;11608;50.894;5.296;2023-07-29T05:18:13;20.27;;;18.83;;
22881;SDS011;11608;50.894;5.296;2023-07-29T05:20:39;21.10;;;19.50;;
22881;SDS011;11608;50.894;5.296;2023-07-29T05:23:05;21.00;;;19.40;;
22881;SDS011;11608;50.894;5.296;2023-07-29T05:25:32;20.88;;;19.30;;
22881;SDS011;11608;50.894;5.296;2023-07-29T05:28:00;21.30;;;19.60;;
22881;SDS011;11608;50.894;5.296;2023-07-29T05:30:26;20.38;;;18.88;;
22881;SDS011;11608;50.894;5.296;2023-07-29T05:32:55;19.80;;;18.40;;
22881;SDS011;11608;50.894;5.296;2023-07-29T05:35:21;20.27;;;18.77;;
22881;SDS011;11608;50.894;5.296;2023-07-29T05:37:47;20.20;;;18.73;;
22881;SDS011;11608;50.894;5.296;2023-07-29T05:40:13;20.33;;;18.75;;
22881;SDS011;11608;50.894;5.296;2023-07-29T05:42:39;20.17;;;18.52;;
22881;SDS011;11608;50.894;5.296;2023-07-29T05:45:06;20.15;;;18.85;;
22881;SDS011;11608;50.894;5.296;2023-07-29T05:47:32;20.48;;;19.02;;
22881;SDS011;11608;50.894;5.296;2023-07-29T05:49:58;20.50;;;19.00;;
22881;SDS011;11608;50.894;5.296;2023-07-29T05:52:27;19.58;;;18.33;;
22881;SDS011;11608;50.894;5.296;2023-07-29T05:54:53;19.77;;;18.38;;
22881;SDS011;11608;50.894;5.296;2023-07-29T05:57:21;20.90;;;19.40;;
22881;SDS011;11608;50.894;5.296;2023-07-29T05:59:47;20.80;;;19.20;;
22881;SDS011;11608;50.894;5.296;2023-07-29T06:02:13;20.58;;;19.15;;
22881;SDS011;11608;50.894;5.296;2023-07-29T06:04:39;19.80;;;18.50;;
22881;SDS011;11608;50.894;5.296;2023-07-29T06:07:08;20.63;;;19.17;;
22881;SDS011;11608;50.894;5.296;2023-07-29T06:09:34;20.92;;;19.40;;
22881;SDS011;11608;50.894;5.296;2023-07-29T06:12:00;21.17;;;19.52;;
22881;SDS011;11608;50.894;5.296;2023-07-29T06:14:31;21.80;;;20.38;;
22881;SDS011;11608;50.894;5.296;2023-07-29T06:16:57;22.60;;;20.90;;
22881;SDS011;11608;50.894;5.296;2023-07-29T06:19:23;21.83;;;20.23;;
22881;SDS011;11608;50.894;5.296;2023-07-29T06:21:49;22.35;;;20.50;;
22881;SDS011;11608;50.894;5.296;2023-07-29T06:24:20;21.83;;;20.33;;
22881;SDS011;11608;50.894;5.296;2023-07-29T06:26:46;21.92;;;20.25;;
22881;SDS011;11608;50.894;5.296;2023-07-29T06:29:12;21.63;;;20.15;;
22881;SDS011;11608;50.894;5.296;2023-07-29T06:31:38;22.90;;;21.00;;
22881;SDS011;11608;50.894;5.296;2023-07-29T06:34:04;22.20;;;20.50;;
22881;SDS011;11608;50.894;5.296;2023-07-29T06:36:33;21.23;;;19.83;;
22881;SDS011;11608;50.894;5.296;2023-07-29T06:38:59;21.40;;;19.60;;
22881;SDS011;11608;50.894;5.296;2023-07-29T06:41:25;21.30;;;19.55;;
22881;SDS011;11608;50.894;5.296;2023-07-29T06:43:53;19.88;;;18.40;;
22881;SDS011;11608;50.894;5.296;2023-07-29T06:46:19;21.33;;;19.92;;
22881;SDS011;11608;50.894;5.296;2023-07-29T06:48:47;21.23;;;19.48;;
22881;SDS011;11608;50.894;5.296;2023-07-29T06:51:13;21.30;;;19.85;;
22881;SDS011;11608;50.894;5.296;2023-07-29T06:53:39;21.95;;;20.30;;
22881;SDS011;11608;50.894;5.296;2023-07-29T06:56:08;21.55;;;19.90;;
22881;SDS011;11608;50.894;5.296;2023-07-29T06:58:34;20.17;;;18.77;;
22881;SDS011;11608;50.894;5.296;2023-07-29T07:01:00;20.88;;;19.52;;
22881;SDS011;11608;50.894;5.296;2023-07-29T07:03:28;20.60;;;18.90;;
22881;SDS011;11608;50.894;5.296;2023-07-29T07:05:54;21.27;;;19.60;;
22881;SDS011;11608;50.894;5.296;2023-07-29T07:08:22;20.38;;;19.02;;
22881;SDS011;11608;50.894;5.296;2023-07-29T07:10:48;19.42;;;18.13;;
22881;SDS011;11608;50.894;5.296;2023-07-29T07:13:14;20.15;;;18.75;;
22881;SDS011;11608;50.894;5.296;2023-07-29T07:15:48;20.08;;;18.58;;
22881;SDS011;11608;50.894;5.296;2023-07-29T07:18:14;20.40;;;18.90;;
22881;SDS011;11608;50.894;5.296;2023-07-29T07:20:40;20.38;;;18.90;;
22881;SDS011;11608;50.894;5.296;2023-07-29T07:23:06;19.60;;;18.30;;
22881;SDS011;11608;50.894;5.296;2023-07-29T07:25:36;19.85;;;18.30;;
22881;SDS011;11608;50.894;5.296;2023-07-29T07:28:04;19.60;;;18.30;;
22881;SDS011;11608;50.894;5.296;2023-07-29T07:30:30;19.73;;;18.40;;
22881;SDS011;11608;50.894;5.296;2023-07-29T07:32:56;20.17;;;18.60;;
22881;SDS011;11608;50.894;5.296;2023-07-29T07:35:23;19.85;;;18.52;;
22881;SDS011;11608;50.894;5.296;2023-07-29T07:37:49;20.00;;;18.55;;
22881;SDS011;11608;50.894;5.296;2023-07-29T07:40:15;19.95;;;18.45;;
22881;SDS011;11608;50.894;5.296;2023-07-29T07:42:41;19.67;;;18.23;;
22881;SDS011;11608;50.894;5.296;2023-07-29T07:45:09;19.80;;;18.50;;
22881;SDS011;11608;50.894;5.296;2023-07-29T07:47:35;19.60;;;18.27;;
22881;SDS011;11608;50.894;5.296;2023-07-29T07:50:02;20.15;;;18.73;;
22881;SDS011;11608;50.894;5.296;2023-07-29T07:52:30;20.10;;;18.70;;
22881;SDS011;11608;50.894;5.296;2023-07-29T07:54:56;20.33;;;18.70;;
22881;SDS011;11608;50.894;5.296;2023-07-29T07:57:22;19.98;;;18.55;;
22881;SDS011;11608;50.894;5.296;2023-07-29T07:59:48;19.55;;;18.25;;
22881;SDS011;11608;50.894;5.296;2023-07-29T08:02:15;19.70;;;18.15;;
22881;SDS011;11608;50.894;5.296;2023-07-29T08:04:41;21.00;;;19.13;;
22881;SDS011;11608;50.894;5.296;2023-07-29T08:07:08;20.33;;;18.83;;
22881;SDS011;11608;50.894;5.296;2023-07-29T08:09:34;20.60;;;19.10;;
22881;SDS011;11608;50.894;5.296;2023-07-29T08:12:00;19.63;;;18.42;;
22881;SDS011;11608;50.894;5.296;2023-07-29T08:14:26;19.73;;;18.27;;
22881;SDS011;11608;50.894;5.296;2023-07-29T08:16:52;19.80;;;18.50;;
22881;SDS011;11608;50.894;5.296;2023-07-29T08:19:21;20.02;;;18.77;;
22881;SDS011;11608;50.894;5.296;2023-07-29T08:21:47;20.10;;;18.65;;
22881;SDS011;11608;50.894;5.296;2023-07-29T08:24:13;19.75;;;18.35;;
22881;SDS011;11608;50.894;5.296;2023-07-29T08:26:39;20.45;;;18.90;;
22881;SDS011;11608;50.894;5.296;2023-07-29T08:29:05;19.73;;;18.42;;
22881;SDS011;11608;50.894;5.296;2023-07-29T08:31:31;20.08;;;18.77;;
22881;SDS011;11608;50.894;5.296;2023-07-29T08:33:59;19.92;;;18.63;;
22881;SDS011;11608;50.894;5.296;2023-07-29T08:36:25;20.13;;;18.80;;
22881;SDS011;11608;50.894;5.296;2023-07-29T08:38:51;19.98;;;18.73;;
22881;SDS011;11608;50.894;5.296;2023-07-29T08:46:47;19.75;;;18.33;;
22881;SDS011;11608;50.894;5.296;2023-07-29T08:49:13;18.80;;;17.50;;
22881;SDS011;11608;50.894;5.296;2023-07-29T08:51:41;20.10;;;18.80;;
22881;SDS011;11608;50.894;5.296;2023-07-29T08:54:10;20.48;;;19.08;;
22881;SDS011;11608;50.894;5.296;2023-07-29T08:56:36;19.50;;;18.10;;
22881;SDS011;11608;50.894;5.296;2023-07-29T08:59:02;19.42;;;18.02;;
22881;SDS011;11608;50.894;5.296;2023-07-29T09:01:29;19.45;;;18.17;;
22881;SDS011;11608;50.894;5.296;2023-07-29T09:03:56;19.58;;;18.27;;
22881;SDS011;11608;50.894;5.296;2023-07-29T09:06:25;18.13;;;16.95;;
22881;SDS011;11608;50.894;5.296;2023-07-29T09:08:53;18.67;;;17.48;;
22881;SDS011;11608;50.894;5.296;2023-07-29T09:11:26;18.83;;;17.42;;
22881;SDS011;11608;50.894;5.296;2023-07-29T09:13:53;19.52;;;18.10;;
22881;SDS011;11608;50.894;5.296;2023-07-29T09:16:20;19.45;;;18.15;;
22881;SDS011;11608;50.894;5.296;2023-07-29T09:18:50;19.58;;;18.38;;
22881;SDS011;11608;50.894;5.296;2023-07-29T09:21:22;19.58;;;18.10;;
22881;SDS011;11608;50.894;5.296;2023-07-29T09:23:50;20.73;;;19.23;;
22881;SDS011;11608;50.894;5.296;2023-07-29T09:26:23;20.05;;;18.75;;
22881;SDS011;11608;50.894;5.296;2023-07-29T09:28:51;19.48;;;18.05;;
22881;SDS011;11608;50.894;5.296;2023-07-29T09:31:21;19.40;;;18.20;;
22881;SDS011;11608;50.894;5.296;2023-07-29T09:33:47;19.58;;;17.98;;
22881;SDS011;11608;50.894;5.296;2023-07-29T09:36:14;20.00;;;18.52;;
22881;SDS011;11608;50.894;5.296;2023-07-29T09:38:40;19.88;;;18.58;;
22881;SDS011;11608;50.894;5.296;2023-07-29T09:41:06;20.10;;;18.90;;
22881;SDS011;11608;50.894;5.296;2023-07-29T09:43:33;20.75;;;19.55;;
22881;SDS011;11608;50.894;5.296;2023-07-29T09:46:02;21.08;;;19.67;;
22881;SDS011;11608;50.894;5.296;2023-07-29T09:48:35;20.88;;;19.27;;
22881;SDS011;11608;50.894;5.296;2023-07-29T09:51:13;20.95;;;19.58;;
22881;SDS011;11608;50.894;5.296;2023-07-29T09:53:40;21.67;;;20.23;;
22881;SDS011;11608;50.894;5.296;2023-07-29T09:56:07;22.02;;;20.52;;
22881;SDS011;11608;50.894;5.296;2023-07-29T09:58:33;20.13;;;18.92;;
22881;SDS011;11608;50.894;5.296;2023-07-29T10:01:02;20.38;;;19.08;;
22881;SDS011;11608;50.894;5.296;2023-07-29T10:03:29;20.70;;;19.30;;
22881;SDS011;11608;50.894;5.296;2023-07-29T10:05:55;21.60;;;20.20;;
22881;SDS011;11608;50.894;5.296;2023-07-29T10:08:22;20.00;;;18.48;;
22881;SDS011;11608;50.894;5.296;2023-07-29T10:10:49;19.35;;;18.02;;
22881;SDS011;11608;50.894;5.296;2023-07-29T10:13:16;20.55;;;19.13;;
22881;SDS011;11608;50.894;5.296;2023-07-29T10:15:43;19.08;;;17.77;;
22881;SDS011;11608;50.894;5.296;2023-07-29T10:18:09;19.08;;;17.67;;
22881;SDS011;11608;50.894;5.296;2023-07-29T10:20:35;19.13;;;17.83;;
22881;SDS011;11608;50.894;5.296;2023-07-29T10:23:02;19.70;;;18.40;;
22881;SDS011;11608;50.894;5.296;2023-07-29T10:25:38;19.42;;;18.02;;
22881;SDS011;11608;50.894;5.296;2023-07-29T10:28:07;19.95;;;18.60;;
22881;SDS011;11608;50.894;5.296;2023-07-29T10:30:36;19.42;;;18.08;;
22881;SDS011;11608;50.894;5.296;2023-07-29T10:33:03;19.40;;;17.92;;
22881;SDS011;11608;50.894;5.296;2023-07-29T10:35:32;19.42;;;18.17;;
22881;SDS011;11608;50.894;5.296;2023-07-29T10:37:59;19.70;;;18.30;;
22881;SDS011;11608;50.894;5.296;2023-07-29T10:40:26;21.00;;;19.40;;
22881;SDS011;11608;50.894;5.296;2023-07-29T10:43:02;20.00;;;18.30;;
22881;SDS011;11608;50.894;5.296;2023-07-29T10:45:38;19.38;;;18.08;;
22881;SDS011;11608;50.894;5.296;2023-07-29T10:48:06;18.80;;;17.60;;
22881;SDS011;11608;50.894;5.296;2023-07-29T10:50:37;20.25;;;18.85;;
22881;SDS011;11608;50.894;5.296;2023-07-29T10:53:03;20.50;;;19.10;;
22881;SDS011;11608;50.894;5.296;2023-07-29T10:55:31;19.67;;;18.17;;
22881;SDS011;11608;50.894;5.296;2023-07-29T10:58:13;19.80;;;18.45;;
22881;SDS011;11608;50.894;5.296;2023-07-29T11:00:42;19.58;;;18.27;;
22881;SDS011;11608;50.894;5.296;2023-07-29T11:03:11;21.15;;;19.40;;
22881;SDS011;11608;50.894;5.296;2023-07-29T11:05:49;20.63;;;19.08;;
22881;SDS011;11608;50.894;5.296;2023-07-29T11:08:19;19.17;;;17.83;;
22881;SDS011;11608;50.894;5.296;2023-07-29T11:11:02;19.63;;;18.17;;
22881;SDS011;11608;50.894;5.296;2023-07-29T11:13:31;19.50;;;18.05;;
22881;SDS011;11608;50.894;5.296;2023-07-29T11:15:58;18.75;;;17.40;;
22881;SDS011;11608;50.894;5.296;2023-07-29T11:18:28;18.13;;;16.92;;
22881;SDS011;11608;50.894;5.296;2023-07-29T11:20:55;19.02;;;17.67;;
22881;SDS011;11608;50.894;5.296;2023-07-29T11:23:26;19.13;;;17.92;;
22881;SDS011;11608;50.894;5.296;2023-07-29T11:25:53;19.00;;;17.52;;
22881;SDS011;11608;50.894;5.296;2023-07-29T11:28:19;19.48;;;18.08;;
22881;SDS011;11608;50.894;5.296;2023-07-29T11:30:47;19.98;;;18.52;;
22881;SDS011;11608;50.894;5.296;2023-07-29T11:33:13;20.00;;;18.40;;
22881;SDS011;11608;50.894;5.296;2023-07-29T11:35:39;19.88;;;18.48;;
22881;SDS011;11608;50.894;5.296;2023-07-29T11:38:05;20.10;;;18.80;;
22881;SDS011;11608;50.894;5.296;2023-07-29T11:40:33;20.02;;;18.50;;
22881;SDS011;11608;50.894;5.296;2023-07-29T11:42:59;21.15;;;19.25;;
22881;SDS011;11608;50.894;5.296;2023-07-29T11:45:26;21.23;;;19.25;;
22881;SDS011;11608;50.894;5.296;2023-07-29T11:47:52;20.85;;;19.27;;
22881;SDS011;11608;50.894;5.296;2023-07-29T11:50:24;21.38;;;19.85;;
22881;SDS011;11608;50.894;5.296;2023-07-29T11:52:50;22.63;;;20.45;;
22881;SDS011;11608;50.894;5.296;2023-07-29T11:55:16;21.35;;;19.65;;
22881;SDS011;11608;50.894;5.296;2023-07-29T11:57:48;20.58;;;19.08;;
22881;SDS011;11608;50.894;5.296;2023-07-29T12:00:19;21.42;;;19.75;;
22881;SDS011;11608;50.894;5.296;2023-07-29T12:02:51;22.75;;;21.25;;
22881;SDS011;11608;50.894;5.296;2023-07-29T12:05:20;23.02;;;21.42;;
22881;SDS011;11608;50.894;5.296;2023-07-29T12:07:47;22.08;;;20.58;;
22881;SDS011;11608;50.894;5.296;2023-07-29T12:10:13;21.02;;;19.50;;
22881;SDS011;11608;50.894;5.296;2023-07-29T12:12:46;20.63;;;19.23;;
22881;SDS011;11608;50.894;5.296;2023-07-29T12:15:12;20.90;;;19.50;;
22881;SDS011;11608;50.894;5.296;2023-07-29T12:17:42;20.30;;;18.80;;
22881;SDS011;11608;50.894;5.296;2023-07-29T12:20:10;21.20;;;19.40;;
22881;SDS011;11608;50.894;5.296;2023-07-29T12:22:36;21.23;;;19.35;;
22881;SDS011;11608;50.894;5.296;2023-07-29T12:25:07;20.90;;;19.38;;
22881;SDS011;11608;50.894;5.296;2023-07-29T12:27:51;21.55;;;19.60;;
22881;SDS011;11608;50.894;5.296;2023-07-29T12:33:35;20.63;;;19.23;;
22881;SDS011;11608;50.894;5.296;2023-07-29T12:36:06;21.70;;;20.00;;
22881;SDS011;11608;50.894;5.296;2023-07-29T12:39:06;22.33;;;20.50;;
22881;SDS011;11608;50.894;5.296;2023-07-29T12:41:55;21.17;;;19.58;;
22881;SDS011;11608;50.894;5.296;2023-07-29T12:44:25;20.83;;;19.20;;
22881;SDS011;11608;50.894;5.296;2023-07-29T12:46:51;20.75;;;19.35;;
22881;SDS011;11608;50.894;5.296;2023-07-29T12:49:17;21.38;;;19.90;;
22881;SDS011;11608;50.894;5.296;2023-07-29T12:51:43;21.35;;;19.95;;
22881;SDS011;11608;50.894;5.296;2023-07-29T12:54:09;21.92;;;20.38;;
22881;SDS011;11608;50.894;5.296;2023-07-29T12:56:36;21.67;;;19.98;;
22881;SDS011;11608;50.894;5.296;2023-07-29T12:59:02;21.35;;;19.90;;
22881;SDS011;11608;50.894;5.296;2023-07-29T13:01:28;20.95;;;19.45;;
22881;SDS011;11608;50.894;5.296;2023-07-29T13:03:54;21.88;;;20.42;;
22881;SDS011;11608;50.894;5.296;2023-07-29T13:06:21;21.33;;;19.83;;
22881;SDS011;11608;50.894;5.296;2023-07-29T13:08:48;20.83;;;19.20;;
22881;SDS011;11608;50.894;5.296;2023-07-29T13:11:16;20.23;;;18.92;;
22881;SDS011;11608;50.894;5.296;2023-07-29T13:13:45;21.80;;;20.10;;
22881;SDS011;11608;50.894;5.296;2023-07-29T13:16:12;21.40;;;19.92;;
22881;SDS011;11608;50.894;5.296;2023-07-29T13:18:40;20.13;;;18.63;;
22881;SDS011;11608;50.894;5.296;2023-07-29T13:21:06;19.98;;;18.55;;
22881;SDS011;11608;50.894;5.296;2023-07-29T13:23:33;21.20;;;19.70;;
22881;SDS011;11608;50.894;5.296;2023-07-29T13:25:59;19.88;;;18.58;;
22881;SDS011;11608;50.894;5.296;2023-07-29T13:28:25;21.35;;;20.02;;
22881;SDS011;11608;50.894;5.296;2023-07-29T13:30:51;20.55;;;19.25;;
22881;SDS011;11608;50.894;5.296;2023-07-29T13:33:17;20.63;;;19.17;;
22881;SDS011;11608;50.894;5.296;2023-07-29T13:35:43;20.70;;;19.30;;
22881;SDS011;11608;50.894;5.296;2023-07-29T13:38:09;21.00;;;19.50;;
22881;SDS011;11608;50.894;5.296;2023-07-29T13:40:44;21.35;;;19.80;;
22881;SDS011;11608;50.894;5.296;2023-07-29T13:43:23;23.25;;;21.65;;
22881;SDS011;11608;50.894;5.296;2023-07-29T13:45:57;21.95;;;20.55;;
22881;SDS011;11608;50.894;5.296;2023-07-29T13:48:43;22.13;;;20.45;;
22881;SDS011;11608;50.894;5.296;2023-07-29T13:51:09;21.48;;;19.88;;
22881;SDS011;11608;50.894;5.296;2023-07-29T13:53:35;21.13;;;19.60;;
22881;SDS011;11608;50.894;5.296;2023-07-29T13:56:01;20.42;;;19.02;;
22881;SDS011;11608;50.894;5.296;2023-07-29T13:58:27;21.42;;;20.02;;
22881;SDS011;11608;50.894;5.296;2023-07-29T14:00:53;22.40;;;20.85;;
22881;SDS011;11608;50.894;5.296;2023-07-29T14:03:19;22.83;;;21.23;;
22881;SDS011;11608;50.894;5.296;2023-07-29T14:05:46;22.45;;;20.90;;
22881;SDS011;11608;50.894;5.296;2023-07-29T14:08:12;20.50;;;19.20;;
22881;SDS011;11608;50.894;5.296;2023-07-29T14:10:40;20.13;;;18.83;;
22881;SDS011;11608;50.894;5.296;2023-07-29T14:13:06;21.00;;;19.50;;
22881;SDS011;11608;50.894;5.296;2023-07-29T14:15:32;21.95;;;20.55;;
22881;SDS011;11608;50.894;5.296;2023-07-29T14:17:58;20.35;;;18.95;;
22881;SDS011;11608;50.894;5.296;2023-07-29T14:20:24;19.35;;;18.05;;
22881;SDS011;11608;50.894;5.296;2023-07-29T14:22:50;20.50;;;19.20;;
22881;SDS011;11608;50.894;5.296;2023-07-29T14:25:17;19.90;;;18.60;;
22881;SDS011;11608;50.894;5.296;2023-07-29T14:27:43;20.20;;;18.90;;
22881;SDS011;11608;50.894;5.296;2023-07-29T14:30:11;19.35;;;18.10;;
22881;SDS011;11608;50.894;5.296;2023-07-29T14:32:37;18.80;;;17.60;;
22881;SDS011;11608;50.894;5.296;2023-07-29T14:35:06;21.05;;;19.75;;
22881;SDS011;11608;50.894;5.296;2023-07-29T14:37:33;20.88;;;19.58;;
22881;SDS011;11608;50.894;5.296;2023-07-29T14:39:59;20.58;;;19.27;;
22881;SDS011;11608;50.894;5.296;2023-07-29T14:42:26;18.95;;;17.55;;